createdAt,value
2024-04-18T00:01:19.255Z,100193.72
2024-04-18T00:06:23.566Z,100193.94
2024-04-18T00:11:27.237Z,100211.88
2024-04-18T00:16:31.988Z,100214.88
2024-04-18T00:21:52.209Z,100225.44
2024-04-18T00:27:02.300Z,100225.22
2024-04-18T00:32:13.274Z,100226.13
2024-04-18T00:37:38.500Z,100237.50
2024-04-18T00:42:42.848Z,100228.38
2024-04-18T00:47:50.347Z,100246.22
2024-04-18T00:52:53.764Z,100255.94
2024-04-18T00:58:05.176Z,100253.03
2024-04-18T01:03:17.448Z,100256.53
2024-04-18T01:08:21.107Z,100258.66
2024-04-18T01:13:40.826Z,100258.66
2024-04-18T01:19:01.359Z,100257.16
2024-04-18T01:24:05.296Z,100266.50
2024-04-18T01:29:08.529Z,100265.53
2024-04-18T01:34:13.080Z,100273.59
2024-04-18T01:39:16.951Z,100262.34
2024-04-18T01:44:21.146Z,100266.81
2024-04-18T01:49:45.391Z,100270.16
2024-04-18T01:54:48.498Z,100270.97
2024-04-18T02:00:07.859Z,100280.38
2024-04-18T02:05:14.659Z,100267.91
2024-04-18T02:10:20.659Z,100276.94
2024-04-18T02:15:36.789Z,100270.03
2024-04-18T02:20:49.800Z,100281.94
2024-04-18T02:26:00.111Z,100289.88
2024-04-18T02:31:05.056Z,100286.94
2024-04-18T02:36:26.752Z,100299.75
2024-04-18T02:41:51.145Z,100302.72
2024-04-18T02:47:03.101Z,100291.97
2024-04-18T02:52:07.058Z,100287.69
2024-04-18T02:57:20.418Z,100295.16
2024-04-18T03:02:29.113Z,100305.47
2024-04-18T03:07:51.734Z,100311.31
2024-04-18T03:12:55.901Z,100306.19
2024-04-18T03:18:19.262Z,100314.84
2024-04-18T03:23:32.207Z,100315.16
2024-04-18T03:28:38.937Z,100320.13
2024-04-18T03:33:44.869Z,100324.09
2024-04-18T03:38:48.320Z,100320.38
2024-04-18T03:43:51.916Z,100326.75
2024-04-18T03:48:57.928Z,100334.97
2024-04-18T03:54:02.139Z,100326.56
2024-04-18T03:59:25.579Z,100347.63
2024-04-18T04:04:31.222Z,100342.09
2024-04-18T04:09:34.367Z,100332.91
2024-04-18T04:14:37.396Z,100339.44
2024-04-18T04:19:42.085Z,100339.91
2024-04-18T04:24:45.989Z,100342.00
2024-04-18T04:29:59.963Z,100348.88
2024-04-18T04:35:03.488Z,100355.28
2024-04-18T04:40:07.779Z,100346.50
2024-04-18T04:45:12.643Z,100350.84
2024-04-18T04:50:15.767Z,100352.47
2024-04-18T04:55:18.730Z,100354.34
2024-04-18T05:00:23.787Z,100351.13
2024-04-18T05:05:33.031Z,100351.56
2024-04-18T05:10:46.345Z,100363.28
2024-04-18T05:15:54.395Z,100370.09
2024-04-18T05:21:07.359Z,100365.00
2024-04-18T05:26:34.132Z,100369.66
2024-04-18T05:31:41.604Z,100365.88
2024-04-18T05:36:47.385Z,100365.28
2024-04-18T05:41:52.360Z,100366.06
2024-04-18T05:47:09.214Z,100360.06
2024-04-18T05:52:12.614Z,100356.22
2024-04-18T05:57:18.078Z,100359.69
2024-04-18T06:02:28.954Z,100353.44
2024-04-18T06:07:32.782Z,100364.69
2024-04-18T06:12:36.704Z,100360.81
2024-04-18T06:17:42.034Z,100363.03
2024-04-18T06:22:45.670Z,100352.25
2024-04-18T06:28:01.592Z,100357.66
2024-04-18T06:33:07.316Z,100357.09
2024-04-18T06:38:10.488Z,100357.81
2024-04-18T06:43:14.902Z,100339.25
2024-04-18T06:48:18.210Z,100347.22
2024-04-18T06:53:21.304Z,100331.97
2024-04-18T06:58:25.026Z,100329.34
2024-04-18T07:03:30.660Z,100326.81
2024-04-18T07:08:33.899Z,100323.28
2024-04-18T07:13:41.490Z,100318.97
2024-04-18T07:19:04.899Z,100318.91
2024-04-18T07:24:28.033Z,100317.28
2024-04-18T07:29:31.663Z,100317.28
2024-04-18T07:34:36.646Z,100320.81
2024-04-18T07:39:45.878Z,100317.25
2024-04-18T07:44:48.923Z,100316.44
2024-04-18T07:49:52.954Z,100323.19
2024-04-18T07:54:56.745Z,100315.53
2024-04-18T08:00:00.720Z,100302.75
2024-04-18T08:05:17.763Z,100307.88
2024-04-18T08:10:24.830Z,100297.50
2024-04-18T08:20:58.103Z,100286.31
2024-04-18T08:26:01.271Z,100284.63
2024-04-18T08:31:06.123Z,100290.66
2024-04-18T08:36:09.325Z,100307.81
2024-04-18T08:41:14.760Z,100291.44
2024-04-18T08:46:19.993Z,100292.34
2024-04-18T08:51:23.511Z,100295.81
2024-04-18T08:56:27.072Z,100293.13
2024-04-18T09:01:31.591Z,100294.03
2024-04-18T09:06:35.080Z,100292.41
2024-04-18T09:11:39.342Z,100293.28
2024-04-18T09:16:45.119Z,100294.97
2024-04-18T09:21:48.696Z,100282.03
2024-04-18T09:26:52.230Z,100286.38
2024-04-18T09:31:59.961Z,100287.25
2024-04-18T09:37:07.300Z,100282.97
2024-04-18T09:42:29.190Z,100276.13
2024-04-18T09:47:34.217Z,100282.13
2024-04-18T09:52:39.169Z,100275.25
2024-04-18T09:57:44.652Z,100273.53
2024-04-18T10:02:52.222Z,100264.06
2024-04-18T10:07:59.786Z,100270.00
2024-04-18T10:13:06.075Z,100252.75
2024-04-18T10:18:22.193Z,100240.84
2024-04-18T10:23:29.175Z,100240.00
2024-04-18T10:28:36.067Z,100239.16
2024-04-18T10:33:44.348Z,100232.28
2024-04-18T10:38:49.238Z,100222.84
2024-04-18T10:43:52.876Z,100224.53
2024-04-18T10:48:59.218Z,100209.09
2024-04-18T10:54:02.554Z,100197.06
2024-04-18T10:59:09.285Z,100200.50
2024-04-18T11:04:13.618Z,100190.19
2024-04-18T11:09:18.591Z,100185.91
2024-04-18T11:14:23.752Z,100187.63
2024-04-18T11:19:28.119Z,100179.03
2024-04-18T11:24:31.597Z,100179.03
2024-04-18T11:29:35.191Z,100161.88
2024-04-18T11:34:40.415Z,100158.44
2024-04-18T11:39:43.973Z,100150.69
2024-04-18T11:44:47.467Z,100145.50
2024-04-18T11:49:52.146Z,100151.47
2024-04-18T11:54:55.892Z,100142.75
2024-04-18T12:00:13.458Z,100135.81
2024-04-18T12:05:35.697Z,100134.03
2024-04-18T12:10:40.020Z,100132.22
2024-04-18T12:15:43.541Z,100118.44
2024-04-18T12:21:06.060Z,100108.94
2024-04-18T12:26:13.242Z,100109.66
2024-04-18T12:31:22.747Z,100102.72
2024-04-18T12:36:28.262Z,100100.09
2024-04-18T12:41:52.178Z,100097.44
2024-04-18T12:46:55.508Z,100101.59
2024-04-18T12:51:59.422Z,100101.47
2024-04-18T12:57:03.017Z,100099.56
2024-04-18T13:02:07.737Z,100091.66
2024-04-18T13:07:15.433Z,100078.59
2024-04-18T13:12:39.935Z,100082.59
2024-04-18T13:18:03.014Z,100072.13
2024-04-18T13:23:06.792Z,100068.59
2024-04-18T13:28:11.603Z,100059.09
2024-04-18T13:33:16.175Z,100048.72
2024-04-18T13:38:19.633Z,100041.75
2024-04-18T13:43:31.894Z,100016.91
2024-04-18T13:48:44.871Z,100011.81
2024-04-18T13:53:47.760Z,100008.41
2024-04-18T13:58:57.834Z,100008.53
2024-04-18T14:04:04.793Z,99989.72
2024-04-18T14:09:16.616Z,99986.25
2024-04-18T14:14:19.482Z,99982.88
2024-04-18T14:19:41.436Z,99975.97
2024-04-18T14:24:44.756Z,99970.88
2024-04-18T14:30:08.500Z,99964.91
2024-04-18T14:35:12.243Z,99956.38
2024-04-18T14:40:15.596Z,99957.22
2024-04-18T14:45:20.366Z,99959.78
2024-04-18T14:50:23.346Z,99953.88
2024-04-18T14:55:40.276Z,99947.75
2024-04-18T15:00:54.845Z,99937.31
2024-04-18T15:06:00.769Z,99938.13
2024-04-18T15:11:15.569Z,99907.19
2024-04-18T15:16:37.441Z,99924.03
2024-04-18T15:21:40.968Z,99908.59
2024-04-18T15:26:47.946Z,99903.31
2024-04-18T15:31:52.122Z,99881.59
2024-04-18T15:37:13.770Z,99876.94
2024-04-18T15:42:34.001Z,99870.66
2024-04-18T15:47:39.131Z,99840.56
2024-04-18T15:52:57.154Z,99819.00
2024-04-18T15:58:05.144Z,99798.31
2024-04-18T16:03:19.047Z,99790.78
2024-04-18T16:08:29.122Z,99776.28
2024-04-18T16:13:32.043Z,99773.63
2024-04-18T16:18:54.012Z,99756.50
2024-04-18T16:24:09.973Z,99740.31
2024-04-18T16:29:13.310Z,99728.22
2024-04-18T16:34:18.644Z,99715.16
2024-04-18T16:39:32.976Z,99694.47
2024-04-18T16:44:37.112Z,99684.19
2024-04-18T16:49:47.104Z,99662.88
2024-04-18T16:54:50.725Z,99644.00
2024-04-18T17:00:14.288Z,99621.88
2024-04-18T17:05:17.654Z,99599.66
2024-04-18T17:10:21.163Z,99579.97
2024-04-18T17:15:42.829Z,99549.28
2024-04-18T17:20:46.182Z,99533.91
2024-04-18T17:25:52.477Z,99516.03
2024-04-18T17:30:56.050Z,99505.78
2024-04-18T17:35:59.349Z,99496.38
2024-04-18T17:41:20.753Z,99469.06
2024-04-18T17:46:24.659Z,99457.06
2024-04-18T17:51:27.770Z,99448.50
2024-04-18T17:56:30.711Z,99421.31
2024-04-18T18:01:34.464Z,99393.25
2024-04-18T18:06:48.171Z,99362.63
2024-04-18T18:11:51.181Z,99334.53
2024-04-18T18:16:54.479Z,99324.53
2024-04-18T18:22:01.151Z,99306.84
2024-04-18T18:27:04.949Z,99288.25
2024-04-18T18:32:15.116Z,99245.81
2024-04-18T18:37:19.397Z,99217.00
2024-04-18T18:42:42.927Z,99187.44
2024-04-18T18:47:46.302Z,99161.19
2024-04-18T18:52:56.860Z,99147.72
2024-04-18T18:58:10.532Z,99123.88
2024-04-18T19:03:14.834Z,99083.13
2024-04-18T19:08:18.077Z,99066.22
2024-04-18T19:13:30.300Z,99049.22
2024-04-18T19:18:34.613Z,99062.84
2024-04-18T19:23:38.635Z,99040.78
2024-04-18T19:28:42.427Z,99037.44
2024-04-18T19:33:46.334Z,99020.47
2024-04-18T19:38:50.516Z,99009.44
2024-04-18T19:44:02.804Z,99000.13
2024-04-18T19:49:07.435Z,98983.16
2024-04-18T19:54:29.052Z,98967.00
2024-04-18T19:59:32.765Z,98951.66
2024-04-18T20:04:36.218Z,98936.38
2024-04-18T20:09:39.220Z,98926.19
2024-04-18T20:14:42.847Z,98899.06
2024-04-18T20:19:46.066Z,98886.31
2024-04-18T20:24:49.215Z,98880.38
2024-04-18T20:30:11.198Z,98849.75
2024-04-18T20:35:34.143Z,98859.94
2024-04-18T20:40:37.734Z,98848.03
2024-04-18T20:45:41.408Z,98823.47
2024-04-18T20:50:44.346Z,98816.66
2024-04-18T20:55:47.305Z,98803.94
2024-04-18T21:00:50.925Z,98781.03
2024-04-18T21:05:54.065Z,98771.72
2024-04-18T21:10:57.144Z,98760.69
2024-04-18T21:16:01.197Z,98761.50
2024-04-18T21:21:05.049Z,98754.75
2024-04-18T21:26:08.634Z,98744.56
2024-04-18T21:31:11.872Z,98738.66
2024-04-18T21:36:14.857Z,98748.81
2024-04-18T21:41:18.480Z,98743.78
2024-04-18T21:46:22.300Z,98731.88
2024-04-18T21:51:25.251Z,98731.94
2024-04-18T21:56:28.379Z,98721.75
2024-04-18T22:01:31.872Z,98724.31
2024-04-18T22:06:35.052Z,98715.84
2024-04-18T22:11:38.892Z,98709.09
2024-04-18T22:16:43.747Z,98708.25
2024-04-18T22:21:47.436Z,98695.53
2024-04-18T22:26:50.442Z,98691.28
2024-04-18T22:31:54.098Z,98693.91
2024-04-18T22:36:57.218Z,98678.66
2024-04-18T22:42:00.203Z,98682.03
2024-04-18T22:47:03.421Z,98679.47
2024-04-18T22:52:06.620Z,98679.53
2024-04-18T22:57:09.635Z,98681.22
2024-04-18T23:02:14.856Z,98672.72
2024-04-18T23:07:18.370Z,98700.75
2024-04-18T23:12:21.996Z,98716.09
2024-04-18T23:17:25.725Z,98715.25
2024-04-18T23:22:29.317Z,98717.78
2024-04-18T23:27:32.423Z,98724.59
2024-04-18T23:32:37.127Z,98728.00
2024-04-18T23:37:40.540Z,98732.25
2024-04-18T23:42:44.153Z,98733.94
2024-04-18T23:47:48.011Z,98747.56
2024-04-18T23:52:50.953Z,98756.91
2024-04-18T23:57:53.926Z,98764.59
